Time;durP1;ratioP1;P1;durP2;ratioP2;P2;SDS_P1;SDS_P2;PMS_P1;PMS_P2;Temp;Humidity;BMP_temperature;BMP_pressure;BME280_temperature;BME280_humidity;BME280_pressure;Samples;Min_cycle;Max_cycle;Signal;HPM_P1;HPM_P2
2024/01/15 00:01:00;;;;;;;116.67;32.87;;;;;;;;;;5100691;28;20462;-75
2024/01/15 00:03:25;;;;;;;107.60;34.22;;;;;;;;;;5108823;28;20297;-75
2024/01/15 00:05:50;;;;;;;104.00;31.87;;;;;;;;;;5102851;28;20050;-75
2024/01/15 00:08:16;;;;;;;108.85;31.75;;;;;;;;;;5099855;28;20266;-75
2024/01/15 00:10:41;;;;;;;92.07;29.77;;;;;;;;;;5104765;28;20035;-76
2024/01/15 00:13:06;;;;;;;103.10;29.55;;;;;;;;;;5099967;28;20285;-75
2024/01/15 00:15:31;;;;;;;80.60;28.00;;;;;;;;;;5106979;28;20016;-75
2024/01/15 00:17:56;;;;;;;86.20;28.52;;;;;;;;;;5099834;28;20323;-75
2024/01/15 00:20:22;;;;;;;85.45;28.92;;;;;;;;;;5106491;28;20015;-75
2024/01/15 00:22:47;;;;;;;83.43;27.10;;;;;;;;;;5100715;28;20038;-75
2024/01/15 00:25:12;;;;;;;87.25;26.17;;;;;;;;;;5104178;28;20269;-76
2024/01/15 00:27:38;;;;;;;67.60;24.15;;;;;;;;;;5103049;28;20032;-75
2024/01/15 00:30:04;;;;;;;87.65;24.67;;;;;;;;;;5102842;28;20348;-75
2024/01/15 00:32:29;;;;;;;73.18;25.15;;;;;;;;;;5103469;28;20028;-75
2024/01/15 00:34:54;;;;;;;73.85;24.50;;;;;;;;;;5101228;28;20140;-75
2024/01/15 00:37:20;;;;;;;62.73;22.27;;;;;;;;;;5103900;28;20068;-75
2024/01/15 00:39:45;;;;;;;70.18;23.10;;;;;;;;;;5102325;28;20677;-75
2024/01/15 00:42:10;;;;;;;54.67;18.45;;;;;;;;;;5103387;28;20035;-75
2024/01/15 00:44:35;;;;;;;54.33;17.92;;;;;;;;;;5104062;28;20068;-75
2024/01/15 00:47:01;;;;;;;40.75;15.63;;;;;;;;;;5104459;28;20068;-75
2024/01/15 00:49:27;;;;;;;37.90;14.68;;;;;;;;;;5104584;28;20076;-75
2024/01/15 00:51:52;;;;;;;27.83;10.27;;;;;;;;;;5105974;28;20382;-75
2024/01/15 00:54:17;;;;;;;24.60;8.27;;;;;;;;;;5102518;28;20486;-75
2024/01/15 00:56:42;;;;;;;23.92;7.25;;;;;;;;;;5104644;28;20277;-75
2024/01/15 00:59:10;;;;;;;20.20;7.23;;;;;;;;;;5108710;28;20013;-75
2024/01/15 01:01:35;;;;;;;12.35;5.38;;;;;;;;;;5103139;28;20320;-75
2024/01/15 01:04:00;;;;;;;12.73;4.60;;;;;;;;;;5103070;28;20540;-75
2024/01/15 01:06:25;;;;;;;9.18;3.45;;;;;;;;;;5111948;28;20098;-75
2024/01/15 01:08:50;;;;;;;8.60;3.17;;;;;;;;;;5107178;28;20462;-75
2024/01/15 01:11:16;;;;;;;10.40;2.60;;;;;;;;;;5107195;28;20032;-75
2024/01/15 01:13:41;;;;;;;9.97;2.83;;;;;;;;;;5107094;28;20102;-75
2024/01/15 01:16:06;;;;;;;7.43;2.70;;;;;;;;;;5106626;28;20617;-75
2024/01/15 01:18:31;;;;;;;7.93;1.83;;;;;;;;;;5108833;28;20049;-75
2024/01/15 01:20:57;;;;;;;9.23;2.20;;;;;;;;;;5110569;28;20320;-75
2024/01/15 01:23:22;;;;;;;9.27;2.87;;;;;;;;;;5103993;28;20028;-75
2024/01/15 01:25:47;;;;;;;6.13;3.13;;;;;;;;;;5109954;28;20254;-75
2024/01/15 01:28:12;;;;;;;8.80;2.27;;;;;;;;;;5102803;28;20772;-75
2024/01/15 01:30:37;;;;;;;9.67;2.30;;;;;;;;;;5110499;28;20276;-75
2024/01/15 01:33:02;;;;;;;8.57;2.57;;;;;;;;;;5103441;28;20270;-75
2024/01/15 01:35:28;;;;;;;5.25;2.15;;;;;;;;;;5108305;28;20273;-75
2024/01/15 01:37:53;;;;;;;8.17;2.27;;;;;;;;;;5107853;28;20072;-75
2024/01/15 01:40:18;;;;;;;6.53;2.40;;;;;;;;;;5105227;28;20280;-75
2024/01/15 01:42:43;;;;;;;7.68;2.55;;;;;;;;;;5113850;28;20281;-75
2024/01/15 01:45:08;;;;;;;9.07;2.97;;;;;;;;;;5105749;28;20088;-75
2024/01/15 01:47:34;;;;;;;8.18;2.75;;;;;;;;;;5109622;28;20051;-75
2024/01/15 01:49:59;;;;;;;7.95;2.50;;;;;;;;;;5110879;28;20025;-75
2024/01/15 01:52:24;;;;;;;6.53;2.50;;;;;;;;;;5108947;28;20015;-75
2024/01/15 01:54:50;;;;;;;12.15;2.10;;;;;;;;;;5106311;28;20023;-75
2024/01/15 01:57:16;;;;;;;8.95;2.67;;;;;;;;;;5105568;28;20044;-75
2024/01/15 01:59:42;;;;;;;8.27;2.33;;;;;;;;;;5109909;28;20027;-75
2024/01/15 02:02:07;;;;;;;7.25;2.13;;;;;;;;;;5108408;28;20040;-75
2024/01/15 02:04:32;;;;;;;10.68;2.40;;;;;;;;;;5103198;28;20099;-75
2024/01/15 02:06:58;;;;;;;10.27;2.50;;;;;;;;;;5109331;28;20043;-75
2024/01/15 02:09:23;;;;;;;5.30;1.88;;;;;;;;;;5103910;28;20482;-75
2024/01/15 02:11:49;;;;;;;10.03;2.00;;;;;;;;;;5106896;28;20031;-75
2024/01/15 02:14:14;;;;;;;10.60;2.55;;;;;;;;;;5103970;28;20284;-75
2024/01/15 02:16:39;;;;;;;7.53;2.13;;;;;;;;;;5106788;28;20106;-75
2024/01/15 02:19:05;;;;;;;13.43;2.42;;;;;;;;;;5106579;28;20026;-75
2024/01/15 02:21:31;;;;;;;4.38;2.03;;;;;;;;;;5110120;28;20032;-75
2024/01/15 02:23:56;;;;;;;11.50;2.10;;;;;;;;;;5106092;28;20016;-75
2024/01/15 02:26:21;;;;;;;3.85;1.65;;;;;;;;;;5108136;28;20041;-75
2024/01/15 02:28:47;;;;;;;10.30;1.70;;;;;;;;;;5104932;28;20107;-75
2024/01/15 02:31:12;;;;;;;9.60;1.90;;;;;;;;;;5106179;28;20012;-75
2024/01/15 02:33:38;;;;;;;7.63;1.97;;;;;;;;;;5103072;28;20483;-75
2024/01/15 02:36:03;;;;;;;10.82;1.90;;;;;;;;;;5110881;28;20261;-75
2024/01/15 02:38:28;;;;;;;7.53;1.70;;;;;;;;;;5104896;28;20016;-75
2024/01/15 02:40:53;;;;;;;11.03;1.73;;;;;;;;;;5103392;28;20085;-75
2024/01/15 02:43:19;;;;;;;5.57;1.60;;;;;;;;;;5113444;28;20280;-75
2024/01/15 02:45:44;;;;;;;9.98;2.00;;;;;;;;;;5104068;28;20265;-75
2024/01/15 02:48:09;;;;;;;11.75;1.92;;;;;;;;;;5110703;28;20107;-75
2024/01/15 02:50:34;;;;;;;6.13;1.70;;;;;;;;;;5108274;28;20115;-75
2024/01/15 02:53:00;;;;;;;7.38;1.70;;;;;;;;;;5110333;28;20022;-74
2024/01/15 02:55:25;;;;;;;10.03;2.17;;;;;;;;;;5108817;28;20106;-76
2024/01/15 02:57:50;;;;;;;11.07;1.73;;;;;;;;;;5113871;28;20308;-75
2024/01/15 03:00:15;;;;;;;7.03;1.80;;;;;;;;;;5104425;28;20299;-75
2024/01/15 03:02:43;;;;;;;8.70;1.42;;;;;;;;;;5102708;28;20070;-74
2024/01/15 03:05:08;;;;;;;3.90;1.70;;;;;;;;;;5108147;28;20061;-74
2024/01/15 03:07:33;;;;;;;11.60;1.38;;;;;;;;;;5101099;28;20104;-75
2024/01/15 03:09:59;;;;;;;7.85;1.52;;;;;;;;;;5106024;28;20045;-75
2024/01/15 03:12:24;;;;;;;17.02;2.50;;;;;;;;;;5103232;28;20112;-75
2024/01/15 03:14:49;;;;;;;7.67;1.80;;;;;;;;;;5103257;28;20072;-75
2024/01/15 03:17:14;;;;;;;5.63;1.27;;;;;;;;;;5105361;28;20273;-75
2024/01/15 03:19:39;;;;;;;7.15;1.65;;;;;;;;;;5102574;28;20291;-75
2024/01/15 03:22:07;;;;;;;12.13;2.17;;;;;;;;;;5103677;28;20019;-74
2024/01/15 03:24:32;;;;;;;11.48;1.73;;;;;;;;;;5102733;28;20337;-75
2024/01/15 03:26:57;;;;;;;10.18;2.03;;;;;;;;;;5104376;28;20439;-74
2024/01/15 03:29:23;;;;;;;7.10;1.40;;;;;;;;;;5101018;28;20016;-74
2024/01/15 03:31:48;;;;;;;9.35;2.17;;;;;;;;;;5102593;28;20282;-74
2024/01/15 03:34:13;;;;;;;17.38;2.08;;;;;;;;;;5103571;28;20065;-75
2024/01/15 03:36:38;;;;;;;15.10;3.45;;;;;;;;;;5104713;28;20023;-75
2024/01/15 03:39:03;;;;;;;8.02;1.60;;;;;;;;;;5096536;28;20490;-75
2024/01/15 03:41:29;;;;;;;12.13;2.03;;;;;;;;;;5106785;28;20387;-75
2024/01/15 03:43:54;;;;;;;15.50;2.25;;;;;;;;;;5102549;28;20300;-74
2024/01/15 03:46:19;;;;;;;12.50;2.43;;;;;;;;;;5110387;28;20121;-74
2024/01/15 03:48:44;;;;;;;10.02;2.45;;;;;;;;;;5103173;28;20270;-75
2024/01/15 03:51:10;;;;;;;15.17;2.67;;;;;;;;;;5104277;28;20019;-75
2024/01/15 03:53:35;;;;;;;11.73;2.28;;;;;;;;;;5105972;28;20352;-75
2024/01/15 03:56:00;;;;;;;12.37;2.17;;;;;;;;;;5102437;28;20047;-75
2024/01/15 03:58:25;;;;;;;16.90;2.20;;;;;;;;;;5103273;28;20747;-75
2024/01/15 04:00:51;;;;;;;8.83;1.93;;;;;;;;;;5099967;28;20293;-74
2024/01/15 04:03:16;;;;;;;15.70;2.40;;;;;;;;;;5100920;28;20820;-75
2024/01/15 04:05:41;;;;;;;14.20;2.30;;;;;;;;;;5100603;28;20266;-75
2024/01/15 04:08:06;;;;;;;10.70;2.07;;;;;;;;;;5108355;28;20026;-74
2024/01/15 04:10:31;;;;;;;15.20;2.40;;;;;;;;;;5103549;28;20293;-75
2024/01/15 04:12:57;;;;;;;9.10;2.30;;;;;;;;;;5111431;28;20451;-75
2024/01/15 04:15:22;;;;;;;15.03;2.57;;;;;;;;;;5107852;28;20366;-75
2024/01/15 04:17:47;;;;;;;21.13;2.47;;;;;;;;;;5106066;28;20270;-75
2024/01/15 04:20:12;;;;;;;8.32;1.45;;;;;;;;;;5105498;28;20046;-75
2024/01/15 04:22:37;;;;;;;11.77;2.43;;;;;;;;;;5111824;28;20070;-75
2024/01/15 04:25:03;;;;;;;9.40;1.77;;;;;;;;;;5108091;28;20813;-75
2024/01/15 04:27:28;;;;;;;7.90;1.60;;;;;;;;;;5103352;28;20016;-75
2024/01/15 04:29:53;;;;;;;14.05;1.83;;;;;;;;;;5104116;28;20502;-74
2024/01/15 04:32:19;;;;;;;11.75;1.83;;;;;;;;;;5103058;28;20023;-74
2024/01/15 04:34:44;;;;;;;6.70;1.55;;;;;;;;;;5110327;28;20030;-75
2024/01/15 04:37:09;;;;;;;6.43;1.40;;;;;;;;;;5106727;28;20015;-74
2024/01/15 04:39:34;;;;;;;7.43;2.03;;;;;;;;;;5102780;28;20128;-75
2024/01/15 04:42:00;;;;;;;7.97;1.40;;;;;;;;;;5111852;28;20028;-75
2024/01/15 04:44:25;;;;;;;6.90;1.23;;;;;;;;;;5105888;28;20276;-75
2024/01/15 04:46:50;;;;;;;7.33;1.67;;;;;;;;;;5107738;28;20358;-75
2024/01/15 04:49:15;;;;;;;8.17;1.53;;;;;;;;;;5109870;28;20597;-75
2024/01/15 04:51:40;;;;;;;5.32;1.20;;;;;;;;;;5109384;28;20343;-75
2024/01/15 04:54:05;;;;;;;5.63;1.70;;;;;;;;;;5108921;28;20041;-75
2024/01/15 04:56:31;;;;;;;7.10;1.20;;;;;;;;;;5109320;28;20781;-75
2024/01/15 04:58:56;;;;;;;8.30;1.45;;;;;;;;;;5105654;28;20070;-75
2024/01/15 05:01:21;;;;;;;7.53;1.30;;;;;;;;;;5109473;28;20475;-75
2024/01/15 05:03:46;;;;;;;22.63;2.33;;;;;;;;;;5104206;28;20028;-75
2024/01/15 05:06:11;;;;;;;20.83;2.03;;;;;;;;;;5111225;28;20270;-75
2024/01/15 05:08:36;;;;;;;10.77;1.50;;;;;;;;;;5104275;28;20020;-75
2024/01/15 05:11:02;;;;;;;3.87;1.00;;;;;;;;;;5111823;28;20360;-75
2024/01/15 05:13:27;;;;;;;16.48;1.60;;;;;;;;;;5103537;28;20665;-75
2024/01/15 05:15:53;;;;;;;11.57;2.28;;;;;;;;;;5110886;28;20375;-75
2024/01/15 05:18:18;;;;;;;4.22;1.48;;;;;;;;;;5111967;28;20023;-75
2024/01/15 05:20:43;;;;;;;5.53;1.52;;;;;;;;;;5108628;28;20024;-75
2024/01/15 05:23:08;;;;;;;6.85;1.60;;;;;;;;;;5106863;28;20459;-75
2024/01/15 05:25:34;;;;;;;5.37;1.50;;;;;;;;;;5107382;28;20095;-75
2024/01/15 05:27:59;;;;;;;8.03;1.83;;;;;;;;;;5106414;28;20276;-75
2024/01/15 05:30:24;;;;;;;6.35;1.50;;;;;;;;;;5106930;28;20958;-75
2024/01/15 05:32:49;;;;;;;8.18;2.00;;;;;;;;;;5106771;28;20481;-75
2024/01/15 05:35:14;;;;;;;6.50;2.13;;;;;;;;;;5110022;28;20020;-75
2024/01/15 05:37:45;;;;;;;10.10;2.58;;;;;;;;;;5104642;28;20073;-75
2024/01/15 05:40:10;;;;;;;15.57;2.17;;;;;;;;;;5108925;28;20466;-75
2024/01/15 05:42:35;;;;;;;9.10;2.40;;;;;;;;;;5103870;28;20037;-75
2024/01/15 05:45:03;;;;;;;8.97;1.87;;;;;;;;;;5107084;28;20023;-75
2024/01/15 05:47:29;;;;;;;11.80;2.67;;;;;;;;;;5106422;28;20269;-75
2024/01/15 05:49:54;;;;;;;10.48;2.00;;;;;;;;;;5104056;28;20016;-75
2024/01/15 05:52:21;;;;;;;8.43;1.67;;;;;;;;;;5104497;28;20455;-75
2024/01/15 05:54:46;;;;;;;9.40;2.10;;;;;;;;;;5102847;28;20024;-75
2024/01/15 05:57:12;;;;;;;6.43;2.30;;;;;;;;;;5103377;28;20421;-75
2024/01/15 05:59:37;;;;;;;8.88;2.20;;;;;;;;;;5105751;28;20368;-75
2024/01/15 06:02:02;;;;;;;7.82;2.00;;;;;;;;;;5104943;28;20063;-74
2024/01/15 06:04:27;;;;;;;7.40;2.85;;;;;;;;;;5109700;28;20024;-75
2024/01/15 06:06:52;;;;;;;11.77;2.57;;;;;;;;;;5100126;28;20018;-75
2024/01/15 06:09:17;;;;;;;13.10;3.00;;;;;;;;;;5101629;28;20867;-75
2024/01/15 06:11:43;;;;;;;15.90;2.90;;;;;;;;;;5103026;28;20032;-75
2024/01/15 06:14:08;;;;;;;7.90;2.60;;;;;;;;;;5104692;28;20266;-76
2024/01/15 06:16:33;;;;;;;17.63;2.93;;;;;;;;;;5108556;28;20281;-75
2024/01/15 06:18:58;;;;;;;10.60;2.37;;;;;;;;;;5100768;28;20303;-75
2024/01/15 06:21:23;;;;;;;16.87;3.30;;;;;;;;;;5113278;28;20296;-75
2024/01/15 06:23:48;;;;;;;15.80;3.42;;;;;;;;;;5104149;28;20274;-75
2024/01/15 06:26:14;;;;;;;13.30;3.30;;;;;;;;;;5111944;28;20428;-75
2024/01/15 06:28:39;;;;;;;10.27;3.00;;;;;;;;;;5108592;28;20039;-75
2024/01/15 06:31:05;;;;;;;13.98;3.10;;;;;;;;;;5113432;28;20047;-75
2024/01/15 06:33:31;;;;;;;11.40;3.20;;;;;;;;;;5103474;27;20418;-75
2024/01/15 06:35:56;;;;;;;8.83;3.40;;;;;;;;;;5102357;28;20020;-75
2024/01/15 06:38:21;;;;;;;8.83;2.83;;;;;;;;;;5104735;28;20335;-75
2024/01/15 06:40:48;;;;;;;7.28;2.33;;;;;;;;;;5109154;28;20281;-75
2024/01/15 06:43:13;;;;;;;6.70;2.30;;;;;;;;;;5108011;28;20023;-75
2024/01/15 06:45:38;;;;;;;7.40;2.97;;;;;;;;;;5111634;28;20417;-76
2024/01/15 06:48:03;;;;;;;22.33;3.75;;;;;;;;;;5112074;28;20077;-76
2024/01/15 06:50:29;;;;;;;10.25;3.13;;;;;;;;;;5113811;28;20016;-75
2024/01/15 06:52:54;;;;;;;7.05;2.58;;;;;;;;;;5112843;28;20455;-75
2024/01/15 06:55:19;;;;;;;13.13;3.08;;;;;;;;;;5113179;28;20011;-75
2024/01/15 06:57:44;;;;;;;9.53;3.20;;;;;;;;;;5102601;28;20104;-75
2024/01/15 07:00:10;;;;;;;7.13;2.92;;;;;;;;;;5103566;28;20261;-75
2024/01/15 07:02:35;;;;;;;16.77;3.50;;;;;;;;;;5104544;28;20039;-75
2024/01/15 07:05:00;;;;;;;14.52;3.35;;;;;;;;;;5111904;28;20024;-75
2024/01/15 07:07:29;;;;;;;42.23;5.00;;;;;;;;;;5112034;28;20406;-75
2024/01/15 07:09:54;;;;;;;13.27;3.78;;;;;;;;;;5101781;28;20277;-75
2024/01/15 07:12:19;;;;;;;9.40;3.85;;;;;;;;;;5107700;28;20016;-75
2024/01/15 07:14:45;;;;;;;28.15;4.85;;;;;;;;;;5101313;28;20019;-75
2024/01/15 07:17:10;;;;;;;35.83;6.28;;;;;;;;;;5108975;28;20029;-75
2024/01/15 07:19:35;;;;;;;14.50;5.03;;;;;;;;;;5105868;28;20026;-75
2024/01/15 07:22:00;;;;;;;26.07;5.60;;;;;;;;;;5112062;28;20339;-75
2024/01/15 07:24:25;;;;;;;15.43;5.37;;;;;;;;;;5106586;28;20320;-75
2024/01/15 07:26:50;;;;;;;13.17;4.47;;;;;;;;;;5106572;28;20265;-75
2024/01/15 07:29:16;;;;;;;16.90;5.20;;;;;;;;;;5104536;28;20744;-75
2024/01/15 07:31:47;;;;;;;13.33;4.57;;;;;;;;;;5105215;28;20269;-75
2024/01/15 07:34:12;;;;;;;12.15;4.43;;;;;;;;;;5109304;28;20313;-75
2024/01/15 07:36:37;;;;;;;9.63;4.40;;;;;;;;;;5106888;28;20103;-75
2024/01/15 07:39:02;;;;;;;16.93;4.37;;;;;;;;;;5109733;28;20644;-74
2024/01/15 07:41:27;;;;;;;10.95;4.53;;;;;;;;;;5103378;28;20308;-75
2024/01/15 07:43:52;;;;;;;9.60;5.07;;;;;;;;;;5104391;28;20024;-75
2024/01/15 07:46:18;;;;;;;14.33;6.30;;;;;;;;;;5104492;28;20326;-75
2024/01/15 07:48:43;;;;;;;18.27;7.18;;;;;;;;;;5103210;28;20281;-74
2024/01/15 07:51:08;;;;;;;20.08;8.65;;;;;;;;;;5106916;28;20514;-75
2024/01/15 07:53:33;;;;;;;21.80;8.07;;;;;;;;;;5104355;28;20019;-75
2024/01/15 07:55:58;;;;;;;23.10;8.40;;;;;;;;;;5107327;28;20502;-75
2024/01/15 07:58:24;;;;;;;16.50;7.97;;;;;;;;;;5104619;28;20280;-75
2024/01/15 08:00:49;;;;;;;26.70;8.95;;;;;;;;;;5101803;28;20768;-75
2024/01/15 08:03:15;;;;;;;24.75;9.40;;;;;;;;;;5104434;28;20073;-75
2024/01/15 08:05:40;;;;;;;18.45;9.20;;;;;;;;;;5107447;28;20020;-75
2024/01/15 08:08:05;;;;;;;22.65;8.80;;;;;;;;;;5110906;28;20024;-76
2024/01/15 08:10:30;;;;;;;17.85;8.63;;;;;;;;;;5109146;28;20023;-75
2024/01/15 08:12:55;;;;;;;16.42;7.15;;;;;;;;;;5105409;28;20027;-75
2024/01/15 08:15:21;;;;;;;15.55;7.63;;;;;;;;;;5110892;28;20019;-76
2024/01/15 08:17:46;;;;;;;16.23;8.52;;;;;;;;;;5105039;28;20023;-76
2024/01/15 08:20:11;;;;;;;15.80;6.60;;;;;;;;;;5110837;28;20027;-76
2024/01/15 08:22:38;;;;;;;18.33;7.45;;;;;;;;;;5102028;28;20310;-76
2024/01/15 08:25:03;;;;;;;12.43;6.70;;;;;;;;;;5108367;28;20022;-76
2024/01/15 08:27:29;;;;;;;12.70;6.78;;;;;;;;;;5100939;28;20111;-76
2024/01/15 08:29:54;;;;;;;17.33;6.95;;;;;;;;;;5105641;28;20039;-76
2024/01/15 08:32:19;;;;;;;12.73;6.50;;;;;;;;;;5108074;28;20542;-77
2024/01/15 08:34:46;;;;;;;15.30;6.43;;;;;;;;;;5104163;28;20034;-76
2024/01/15 08:37:11;;;;;;;12.98;5.82;;;;;;;;;;5102711;28;20374;-76
2024/01/15 08:39:38;;;;;;;15.17;6.07;;;;;;;;;;5111586;28;20052;-75
2024/01/15 08:42:03;;;;;;;10.48;5.22;;;;;;;;;;5103500;28;20305;-76
2024/01/15 08:44:28;;;;;;;11.45;4.55;;;;;;;;;;5105407;28;20024;-76
2024/01/15 08:46:54;;;;;;;10.27;4.07;;;;;;;;;;5110019;28;20019;-76
2024/01/15 08:49:19;;;;;;;9.50;3.50;;;;;;;;;;5106516;28;20349;-76
2024/01/15 08:51:44;;;;;;;8.00;2.67;;;;;;;;;;5106628;28;20274;-76
2024/01/15 08:54:09;;;;;;;8.25;2.20;;;;;;;;;;5103813;28;20826;-75
2024/01/15 08:56:35;;;;;;;10.77;1.90;;;;;;;;;;5110777;28;20044;-75
2024/01/15 08:59:00;;;;;;;9.45;2.05;;;;;;;;;;5105563;28;20015;-76
2024/01/15 09:01:25;;;;;;;9.05;1.88;;;;;;;;;;5109258;28;20429;-72
2024/01/15 09:03:51;;;;;;;6.47;1.45;;;;;;;;;;5103335;28;20016;-74
2024/01/15 09:06:16;;;;;;;9.80;1.80;;;;;;;;;;5103143;28;20023;-75
2024/01/15 09:08:41;;;;;;;6.40;1.38;;;;;;;;;;5101456;28;20427;-74
2024/01/15 09:11:06;;;;;;;7.83;1.63;;;;;;;;;;5104855;28;20428;-74
2024/01/15 09:13:32;;;;;;;5.70;1.70;;;;;;;;;;5106364;28;20285;-73
2024/01/15 09:15:58;;;;;;;12.85;2.25;;;;;;;;;;5102532;28;20266;-74
2024/01/15 09:18:23;;;;;;;9.30;1.48;;;;;;;;;;5110031;28;20108;-73
2024/01/15 09:20:48;;;;;;;7.73;1.30;;;;;;;;;;5108260;28;20141;-74
2024/01/15 09:23:13;;;;;;;6.93;1.67;;;;;;;;;;5101131;28;20597;-73
2024/01/15 09:25:38;;;;;;;7.70;1.30;;;;;;;;;;5106896;28;20270;-73
2024/01/15 09:28:04;;;;;;;8.27;1.70;;;;;;;;;;5103765;28;20731;-73
2024/01/15 09:30:29;;;;;;;6.97;2.05;;;;;;;;;;5114267;28;20266;-73
2024/01/15 09:32:54;;;;;;;9.18;2.50;;;;;;;;;;5107613;28;20040;-73
2024/01/15 09:35:19;;;;;;;10.30;1.97;;;;;;;;;;5111703;28;20018;-73
2024/01/15 09:37:45;;;;;;;7.57;2.42;;;;;;;;;;5108229;28;20820;-73
2024/01/15 09:40:13;;;;;;;7.25;2.58;;;;;;;;;;5110002;28;20054;-74
2024/01/15 09:42:38;;;;;;;7.35;2.80;;;;;;;;;;5112001;28;20118;-73
2024/01/15 09:45:04;;;;;;;5.35;1.70;;;;;;;;;;5107909;28;20522;-74
2024/01/15 09:47:29;;;;;;;5.75;1.65;;;;;;;;;;5105675;28;20523;-74
2024/01/15 09:49:57;;;;;;;5.22;1.30;;;;;;;;;;5102910;28;20073;-74
2024/01/15 09:52:23;;;;;;;6.00;1.50;;;;;;;;;;5101763;28;20020;-74
2024/01/15 09:54:48;;;;;;;7.75;1.77;;;;;;;;;;5109514;28;20084;-74
2024/01/15 09:57:14;;;;;;;7.78;3.22;;;;;;;;;;5102936;28;20089;-74
2024/01/15 09:59:40;;;;;;;8.55;2.50;;;;;;;;;;5111300;28;20028;-75
2024/01/15 10:02:06;;;;;;;8.50;3.08;;;;;;;;;;5102981;28;20063;-75
2024/01/15 10:04:32;;;;;;;8.05;2.40;;;;;;;;;;5109249;28;20039;-75
2024/01/15 10:06:57;;;;;;;6.32;2.95;;;;;;;;;;5113154;28;20027;-76
2024/01/15 10:09:22;;;;;;;11.40;2.70;;;;;;;;;;5105621;28;20383;-74
2024/01/15 10:11:48;;;;;;;9.87;3.60;;;;;;;;;;5110431;28;20069;-74
2024/01/15 10:14:13;;;;;;;13.18;4.88;;;;;;;;;;5106681;28;20301;-74
2024/01/15 10:16:39;;;;;;;11.68;4.45;;;;;;;;;;5111502;28;20072;-76
2024/01/15 10:19:04;;;;;;;12.63;4.57;;;;;;;;;;5106756;28;20471;-75
2024/01/15 10:21:31;;;;;;;8.82;4.13;;;;;;;;;;5109975;28;20032;-74
2024/01/15 10:23:56;;;;;;;11.35;4.13;;;;;;;;;;5112011;28;20016;-75
2024/01/15 10:26:24;;;;;;;11.70;3.77;;;;;;;;;;5110418;28;20054;-75
2024/01/15 10:28:51;;;;;;;13.68;3.90;;;;;;;;;;5105723;28;20361;-75
2024/01/15 10:31:16;;;;;;;10.35;3.47;;;;;;;;;;5109441;28;20050;-75
2024/01/15 10:33:42;;;;;;;10.65;4.80;;;;;;;;;;5107704;28;20057;-75
2024/01/15 10:36:09;;;;;;;12.80;4.63;;;;;;;;;;5109866;28;20026;-75
2024/01/15 10:38:37;;;;;;;14.18;5.03;;;;;;;;;;5111001;28;20265;-75
2024/01/15 10:41:04;;;;;;;10.07;4.55;;;;;;;;;;5108068;28;20027;-75
2024/01/15 10:43:30;;;;;;;9.93;4.30;;;;;;;;;;5106986;28;20011;-75
2024/01/15 10:45:56;;;;;;;9.37;4.83;;;;;;;;;;5113403;28;20041;-75
2024/01/15 10:48:21;;;;;;;11.07;4.38;;;;;;;;;;5100090;28;20621;-75
2024/01/15 10:50:46;;;;;;;9.03;4.50;;;;;;;;;;5111175;28;20023;-76
2024/01/15 10:53:13;;;;;;;9.50;3.80;;;;;;;;;;5109142;28;20324;-75
2024/01/15 10:55:39;;;;;;;10.07;4.28;;;;;;;;;;5108351;28;20036;-75
2024/01/15 10:58:05;;;;;;;6.22;3.75;;;;;;;;;;5097895;28;20114;-75
2024/01/15 11:00:30;;;;;;;10.05;3.85;;;;;;;;;;5101747;28;20521;-75
2024/01/15 11:02:55;;;;;;;7.20;3.08;;;;;;;;;;5104410;28;20024;-75
2024/01/15 11:05:22;;;;;;;7.90;3.65;;;;;;;;;;5110513;28;20023;-75
2024/01/15 11:07:48;;;;;;;7.32;3.15;;;;;;;;;;5111345;28;20034;-75
2024/01/15 11:10:32;;;;;;;6.57;3.03;;;;;;;;;;5112423;28;20019;-75
2024/01/15 11:12:57;;;;;;;10.63;3.35;;;;;;;;;;5109704;28;20019;-75
2024/01/15 11:15:22;;;;;;;7.40;2.90;;;;;;;;;;5112516;28;20068;-75
2024/01/15 11:18:01;;;;;;;6.50;2.60;;;;;;;;;;5109116;28;20768;-75
2024/01/15 11:20:26;;;;;;;8.73;3.28;;;;;;;;;;5104226;28;20019;-75
2024/01/15 11:22:52;;;;;;;6.82;3.20;;;;;;;;;;5102730;28;20031;-75
2024/01/15 11:25:20;;;;;;;7.97;2.97;;;;;;;;;;5111417;28;20003;-75
2024/01/15 11:27:52;;;;;;;4.57;2.70;;;;;;;;;;5100643;28;20023;-75
2024/01/15 11:30:19;;;;;;;6.53;2.80;;;;;;;;;;5109373;28;20016;-75
2024/01/15 11:32:46;;;;;;;6.25;2.50;;;;;;;;;;5104321;28;20069;-75
2024/01/15 11:35:11;;;;;;;6.45;2.20;;;;;;;;;;5109489;28;20027;-75
2024/01/15 11:37:52;;;;;;;12.90;2.13;;;;;;;;;;5109848;28;20011;-76
2024/01/15 11:40:18;;;;;;;16.33;2.55;;;;;;;;;;5111689;28;20023;-79
2024/01/15 11:42:44;;;;;;;13.02;2.70;;;;;;;;;;5108486;28;20031;-78
2024/01/15 11:45:09;;;;;;;10.77;2.35;;;;;;;;;;5110807;28;20012;-78
2024/01/15 11:47:54;;;;;;;10.43;2.47;;;;;;;;;;5102770;28;20016;-78
2024/01/15 11:50:21;;;;;;;6.60;2.67;;;;;;;;;;5095615;28;20031;-78
2024/01/15 11:52:59;;;;;;;4.57;3.00;;;;;;;;;;5109702;28;20011;-77
2024/01/15 11:55:24;;;;;;;6.38;2.88;;;;;;;;;;5107306;28;20103;-77
2024/01/15 11:57:50;;;;;;;4.20;2.38;;;;;;;;;;5108631;28;20114;-77
2024/01/15 12:00:15;;;;;;;8.20;2.58;;;;;;;;;;5109710;28;20161;-77
2024/01/15 12:02:44;;;;;;;10.40;3.45;;;;;;;;;;5103174;28;20039;-76
2024/01/15 12:05:14;;;;;;;9.07;3.30;;;;;;;;;;5110597;28;20382;-76
2024/01/15 12:07:39;;;;;;;7.90;3.30;;;;;;;;;;5104667;28;20494;-75
2024/01/15 12:10:11;;;;;;;6.35;3.00;;;;;;;;;;5109211;28;20028;-76
2024/01/15 12:12:46;;;;;;;10.48;4.07;;;;;;;;;;5105171;28;20034;-75
2024/01/15 12:15:12;;;;;;;6.32;3.58;;;;;;;;;;5111086;28;20493;-75
2024/01/15 12:17:38;;;;;;;10.40;3.10;;;;;;;;;;5103205;28;20016;-75
2024/01/15 12:20:04;;;;;;;8.18;4.13;;;;;;;;;;5108498;28;20028;-75
2024/01/15 12:22:29;;;;;;;7.47;3.60;;;;;;;;;;5110702;28;20027;-76
2024/01/15 12:24:54;;;;;;;8.77;4.00;;;;;;;;;;5111052;28;20027;-75
2024/01/15 12:27:20;;;;;;;6.82;4.57;;;;;;;;;;5111088;28;20022;-75
2024/01/15 12:29:45;;;;;;;10.25;4.47;;;;;;;;;;5110948;28;20064;-75
2024/01/15 12:32:11;;;;;;;10.50;4.50;;;;;;;;;;5111020;28;20123;-76
2024/01/15 12:34:37;;;;;;;8.45;3.65;;;;;;;;;;5111402;28;20326;-75
2024/01/15 12:37:02;;;;;;;8.07;4.28;;;;;;;;;;5102958;28;20036;-76
2024/01/15 12:39:28;;;;;;;7.25;3.58;;;;;;;;;;5101398;28;20103;-76
2024/01/15 12:41:53;;;;;;;6.50;3.63;;;;;;;;;;5102624;28;20052;-75
2024/01/15 12:44:18;;;;;;;8.00;3.30;;;;;;;;;;5103356;28;20051;-76
2024/01/15 12:46:43;;;;;;;6.82;2.95;;;;;;;;;;5101007;28;20683;-76
2024/01/15 12:49:08;;;;;;;5.78;3.08;;;;;;;;;;5103764;28;20020;-76
2024/01/15 12:51:34;;;;;;;8.40;3.50;;;;;;;;;;5107074;28;20484;-76
2024/01/15 12:53:59;;;;;;;4.75;2.75;;;;;;;;;;5104044;28;20276;-76
2024/01/15 12:56:24;;;;;;;6.80;3.20;;;;;;;;;;5103797;28;20042;-76
2024/01/15 12:58:49;;;;;;;7.43;3.23;;;;;;;;;;5101737;28;20737;-76
2024/01/15 13:01:15;;;;;;;9.15;3.00;;;;;;;;;;5105617;28;20285;-76
2024/01/15 13:03:40;;;;;;;7.60;2.47;;;;;;;;;;5106878;28;20363;-76
2024/01/15 13:06:05;;;;;;;6.03;2.50;;;;;;;;;;5106518;28;20042;-76
2024/01/15 13:08:30;;;;;;;5.88;2.00;;;;;;;;;;5107946;28;20277;-76
2024/01/15 13:10:57;;;;;;;10.32;2.38;;;;;;;;;;5105595;28;20036;-76
2024/01/15 13:13:22;;;;;;;7.45;2.25;;;;;;;;;;5107628;28;20020;-76
2024/01/15 13:15:47;;;;;;;11.10;2.80;;;;;;;;;;5107584;28;20024;-76
2024/01/15 13:18:12;;;;;;;14.00;2.93;;;;;;;;;;5109963;28;20459;-77
2024/01/15 13:20:38;;;;;;;11.60;3.00;;;;;;;;;;5103869;28;20303;-77
2024/01/15 13:23:03;;;;;;;14.18;3.72;;;;;;;;;;5104404;28;20753;-77
2024/01/15 13:25:29;;;;;;;28.42;4.15;;;;;;;;;;5111148;28;20474;-77
2024/01/15 13:27:54;;;;;;;23.97;4.07;;;;;;;;;;5103879;28;20023;-77
2024/01/15 13:30:19;;;;;;;38.00;4.43;;;;;;;;;;5112317;28;20744;-77
2024/01/15 13:32:44;;;;;;;25.57;5.07;;;;;;;;;;5103031;28;20270;-77
2024/01/15 13:35:12;;;;;;;11.27;3.67;;;;;;;;;;5103995;28;20666;-76
2024/01/15 13:37:38;;;;;;;9.73;3.90;;;;;;;;;;5103950;28;20274;-76
2024/01/15 13:40:03;;;;;;;16.67;4.05;;;;;;;;;;5103082;28;20349;-76
2024/01/15 13:42:28;;;;;;;13.48;4.30;;;;;;;;;;5109844;28;20035;-77
2024/01/15 13:44:54;;;;;;;13.63;5.07;;;;;;;;;;5103461;28;20028;-77
2024/01/15 13:47:19;;;;;;;11.85;5.22;;;;;;;;;;5108055;28;20278;-77
2024/01/15 13:49:44;;;;;;;17.23;6.88;;;;;;;;;;5103832;28;20022;-77
2024/01/15 13:52:09;;;;;;;15.10;6.13;;;;;;;;;;5108964;28;20017;-77
2024/01/15 13:54:35;;;;;;;10.57;5.70;;;;;;;;;;5111200;28;20519;-77
2024/01/15 13:57:01;;;;;;;15.10;5.90;;;;;;;;;;5102713;28;20301;-76
2024/01/15 13:59:26;;;;;;;9.30;5.50;;;;;;;;;;5109465;28;20020;-76
2024/01/15 14:01:51;;;;;;;10.70;5.60;;;;;;;;;;5107840;28;20030;-76
2024/01/15 14:04:16;;;;;;;12.77;5.93;;;;;;;;;;5107055;28;20850;-76
2024/01/15 14:06:41;;;;;;;11.43;5.00;;;;;;;;;;5106518;28;20024;-76
2024/01/15 14:09:09;;;;;;;15.20;4.90;;;;;;;;;;5104926;28;20274;-76
2024/01/15 14:11:35;;;;;;;9.65;4.68;;;;;;;;;;5106599;28;20027;-76
2024/01/15 14:14:00;;;;;;;15.27;4.68;;;;;;;;;;5104616;28;20482;-76
2024/01/15 14:16:25;;;;;;;8.93;4.10;;;;;;;;;;5105762;28;20054;-75
2024/01/15 14:18:50;;;;;;;10.88;3.95;;;;;;;;;;5105864;28;20265;-75
2024/01/15 14:21:15;;;;;;;12.80;3.53;;;;;;;;;;5104936;28;20344;-75
2024/01/15 14:23:41;;;;;;;9.70;3.92;;;;;;;;;;5106311;28;20287;-75
2024/01/15 14:26:06;;;;;;;12.73;3.38;;;;;;;;;;5105721;28;20035;-75